Time;durP1;ratioP1;P1;durP2;ratioP2;P2;SDS_P1;SDS_P2;PMS_P1;PMS_P2;Temp;Humidity;BMP_temperature;BMP_pressure;BME280_temperature;BME280_humidity;BME280_pressure;Samples;Min_cycle;Max_cycle;Signal;HPM_P1;HPM_P2
2023/10/20 00:00:14;;;;;;;10.48;2.85;;;;;;;;;;6319537;22;20025;-39
2023/10/20 00:02:42;;;;;;;8.52;2.45;;;;;;;;;;6335053;22;20022;-38
2023/10/20 00:05:10;;;;;;;13.37;2.60;;;;;;;;;;6330152;22;20049;-39
2023/10/20 00:07:38;;;;;;;14.55;2.60;;;;;;;;;;6323187;22;20315;-39
2023/10/20 00:10:09;;;;;;;8.75;3.00;;;;;;;;;;6319039;22;20341;-39
2023/10/20 00:12:36;;;;;;;7.25;1.75;;;;;;;;;;6323775;22;20496;-39
2023/10/20 00:15:06;;;;;;;7.10;1.60;;;;;;;;;;6336419;22;20103;-39
2023/10/20 00:17:35;;;;;;;6.70;1.60;;;;;;;;;;6327041;22;20500;-39
2023/10/20 00:20:03;;;;;;;6.50;1.60;;;;;;;;;;6332056;22;20033;-39
2023/10/20 00:22:31;;;;;;;6.97;1.55;;;;;;;;;;6326560;22;20014;-38
2023/10/20 00:24:59;;;;;;;5.63;1.33;;;;;;;;;;6327658;22;20018;-39
2023/10/20 00:27:28;;;;;;;5.65;1.50;;;;;;;;;;6319566;22;20015;-39
2023/10/20 00:29:55;;;;;;;4.77;0.90;;;;;;;;;;6337520;22;20018;-40
2023/10/20 00:32:23;;;;;;;4.50;0.90;;;;;;;;;;6324151;22;20314;-40
2023/10/20 00:34:52;;;;;;;5.53;0.98;;;;;;;;;;6341179;22;20447;-41
2023/10/20 00:37:20;;;;;;;4.13;0.80;;;;;;;;;;6321704;22;20025;-39
2023/10/20 00:39:53;;;;;;;3.88;0.90;;;;;;;;;;6307426;22;20033;-39
2023/10/20 00:42:24;;;;;;;5.07;0.80;;;;;;;;;;6325627;22;20014;-39
2023/10/20 00:44:53;;;;;;;5.82;1.10;;;;;;;;;;6326004;22;20387;-38
2023/10/20 00:47:21;;;;;;;5.68;1.02;;;;;;;;;;6331216;22;20414;-39
2023/10/20 00:49:50;;;;;;;7.30;0.80;;;;;;;;;;6316586;22;20014;-39
2023/10/20 00:52:20;;;;;;;3.92;0.65;;;;;;;;;;6320303;22;20035;-39
2023/10/20 00:54:50;;;;;;;7.37;0.80;;;;;;;;;;6334769;22;20023;-38
2023/10/20 00:57:18;;;;;;;6.70;1.08;;;;;;;;;;6324946;22;20468;-39
2023/10/20 00:59:46;;;;;;;6.43;0.90;;;;;;;;;;6324642;22;20015;-39
2023/10/20 01:02:14;;;;;;;4.55;0.90;;;;;;;;;;6331437;22;20419;-39
2023/10/20 01:04:42;;;;;;;4.90;1.05;;;;;;;;;;6330923;22;20014;-39
2023/10/20 01:07:10;;;;;;;5.90;0.90;;;;;;;;;;6331232;22;20014;-39
2023/10/20 01:09:42;;;;;;;7.13;0.80;;;;;;;;;;6329842;22;20010;-39
2023/10/20 01:12:10;;;;;;;5.93;1.20;;;;;;;;;;6318602;22;20025;-39
2023/10/20 01:14:37;;;;;;;5.40;0.88;;;;;;;;;;6336773;22;20087;-39
2023/10/20 01:17:05;;;;;;;7.10;1.30;;;;;;;;;;6322685;22;20097;-39
2023/10/20 01:19:33;;;;;;;5.93;1.30;;;;;;;;;;6338815;22;20067;-39
2023/10/20 01:22:02;;;;;;;6.78;1.58;;;;;;;;;;6324839;22;20331;-39
2023/10/20 01:24:31;;;;;;;5.32;1.48;;;;;;;;;;6325589;22;20056;-39
2023/10/20 01:26:59;;;;;;;6.30;1.27;;;;;;;;;;6338250;22;20014;-39
2023/10/20 01:29:27;;;;;;;7.85;1.75;;;;;;;;;;6329460;22;20015;-39
2023/10/20 01:31:55;;;;;;;6.57;1.90;;;;;;;;;;6333145;22;20021;-39
2023/10/20 01:34:22;;;;;;;7.10;2.47;;;;;;;;;;6298884;22;20015;-38
2023/10/20 01:36:50;;;;;;;6.25;1.70;;;;;;;;;;6340455;22;20480;-38
2023/10/20 01:39:19;;;;;;;6.32;1.80;;;;;;;;;;6320293;22;20025;-39
2023/10/20 01:41:48;;;;;;;7.40;1.90;;;;;;;;;;6334390;22;20011;-39
2023/10/20 01:44:16;;;;;;;7.73;1.70;;;;;;;;;;6329945;22;20385;-40
2023/10/20 01:46:49;;;;;;;6.75;1.42;;;;;;;;;;6338998;22;20014;-39
2023/10/20 01:49:18;;;;;;;7.30;1.55;;;;;;;;;;6320218;22;20060;-39
2023/10/20 01:51:46;;;;;;;6.90;2.15;;;;;;;;;;6340408;22;20014;-39
2023/10/20 01:54:13;;;;;;;7.30;1.80;;;;;;;;;;6320986;22;20018;-39
2023/10/20 01:56:41;;;;;;;7.23;1.90;;;;;;;;;;6337063;22;20367;-39
2023/10/20 01:59:10;;;;;;;7.72;1.80;;;;;;;;;;6334408;22;20380;-40
2023/10/20 02:01:37;;;;;;;6.22;1.58;;;;;;;;;;6291238;22;20042;-39
2023/10/20 02:04:09;;;;;;;6.90;1.80;;;;;;;;;;6318083;22;20026;-40
2023/10/20 02:06:36;;;;;;;8.05;1.80;;;;;;;;;;6339435;22;20010;-39
2023/10/20 02:09:06;;;;;;;7.93;1.67;;;;;;;;;;6334759;22;20010;-39
2023/10/20 02:11:33;;;;;;;5.53;1.42;;;;;;;;;;6329271;22;20019;-39
2023/10/20 02:14:01;;;;;;;6.38;1.83;;;;;;;;;;6341314;22;20014;-39
2023/10/20 02:16:30;;;;;;;5.13;1.75;;;;;;;;;;6348684;22;20040;-39
2023/10/20 02:18:59;;;;;;;5.93;1.45;;;;;;;;;;6330428;22;20022;-39
2023/10/20 02:21:26;;;;;;;6.67;1.70;;;;;;;;;;6342869;22;20075;-40
2023/10/20 02:23:54;;;;;;;5.88;1.52;;;;;;;;;;6293659;22;20021;-39
2023/10/20 02:26:22;;;;;;;5.35;1.42;;;;;;;;;;6333146;22;20333;-39
2023/10/20 02:28:49;;;;;;;5.22;1.60;;;;;;;;;;6318005;22;20415;-39
2023/10/20 02:31:18;;;;;;;6.28;1.60;;;;;;;;;;6341619;22;20014;-39
2023/10/20 02:33:48;;;;;;;8.17;1.77;;;;;;;;;;6327171;22;20491;-39
2023/10/20 02:36:16;;;;;;;6.65;1.75;;;;;;;;;;6335128;22;20030;-39
2023/10/20 02:38:44;;;;;;;6.18;1.60;;;;;;;;;;6302075;22;20024;-39
2023/10/20 02:41:15;;;;;;;6.60;1.77;;;;;;;;;;6327688;22;20014;-39
2023/10/20 02:43:43;;;;;;;6.03;2.08;;;;;;;;;;6342135;22;20046;-39
2023/10/20 02:46:12;;;;;;;8.73;2.40;;;;;;;;;;6339439;22;20018;-39
2023/10/20 02:48:40;;;;;;;7.97;2.25;;;;;;;;;;6320490;22;20014;-39
2023/10/20 02:51:10;;;;;;;7.68;2.45;;;;;;;;;;6313070;22;20021;-40
2023/10/20 02:53:39;;;;;;;8.32;2.50;;;;;;;;;;6318971;22;20010;-39
2023/10/20 02:56:13;;;;;;;9.02;2.95;;;;;;;;;;6341957;22;20026;-40
2023/10/20 02:58:43;;;;;;;12.73;3.10;;;;;;;;;;6335018;22;20011;-39
2023/10/20 03:01:17;;;;;;;11.38;3.17;;;;;;;;;;6342749;22;20425;-39
2023/10/20 03:03:45;;;;;;;11.95;2.97;;;;;;;;;;6351419;22;20428;-39
2023/10/20 03:06:14;;;;;;;8.82;3.17;;;;;;;;;;6328998;22;20018;-39
2023/10/20 03:08:42;;;;;;;11.32;3.28;;;;;;;;;;6333331;22;20018;-39
2023/10/20 03:11:11;;;;;;;10.33;3.40;;;;;;;;;;6333188;22;20010;-39
2023/10/20 03:13:39;;;;;;;13.68;3.50;;;;;;;;;;6339146;22;20018;-38
2023/10/20 03:16:07;;;;;;;10.63;3.25;;;;;;;;;;6339851;22;20022;-39
2023/10/20 03:18:34;;;;;;;10.82;3.30;;;;;;;;;;6325116;22;20010;-39
2023/10/20 03:21:02;;;;;;;12.70;3.70;;;;;;;;;;6344307;22;20010;-39
2023/10/20 03:23:32;;;;;;;13.00;3.63;;;;;;;;;;6314274;22;20024;-38
2023/10/20 03:26:00;;;;;;;17.58;4.25;;;;;;;;;;6346147;22;20018;-38
2023/10/20 03:28:29;;;;;;;15.27;3.55;;;;;;;;;;6333917;22;20063;-39
2023/10/20 03:31:02;;;;;;;13.00;3.72;;;;;;;;;;6335603;22;20550;-39
2023/10/20 03:33:31;;;;;;;12.43;3.70;;;;;;;;;;6334471;22;20513;-39
2023/10/20 03:35:59;;;;;;;12.53;3.60;;;;;;;;;;6343465;22;20064;-39
2023/10/20 03:38:27;;;;;;;11.40;2.88;;;;;;;;;;6323613;22;20015;-39
2023/10/20 03:41:04;;;;;;;12.52;3.40;;;;;;;;;;6296313;22;20042;-39
2023/10/20 03:43:34;;;;;;;9.55;2.33;;;;;;;;;;6328003;22;20040;-39
2023/10/20 03:46:03;;;;;;;8.07;2.33;;;;;;;;;;6342535;22;20014;-41
2023/10/20 03:48:33;;;;;;;7.90;1.83;;;;;;;;;;6339740;22;20472;-41
2023/10/20 03:51:00;;;;;;;8.10;2.35;;;;;;;;;;6327102;22;20030;-39
2023/10/20 03:53:35;;;;;;;7.93;2.10;;;;;;;;;;6343223;22;20029;-39
2023/10/20 03:56:06;;;;;;;7.60;1.98;;;;;;;;;;6293647;22;20451;-39
2023/10/20 03:58:37;;;;;;;6.93;1.60;;;;;;;;;;6269298;22;20045;-39
2023/10/20 04:01:06;;;;;;;5.30;1.47;;;;;;;;;;6348602;22;20436;-39
2023/10/20 04:03:34;;;;;;;7.47;1.60;;;;;;;;;;6331438;22;20424;-39
2023/10/20 04:06:06;;;;;;;5.63;1.30;;;;;;;;;;6334344;22;20036;-39
2023/10/20 04:08:34;;;;;;;4.28;0.80;;;;;;;;;;6333229;22;20015;-39
2023/10/20 04:11:04;;;;;;;5.93;0.80;;;;;;;;;;6327035;22;20067;-39
2023/10/20 04:13:32;;;;;;;5.20;0.70;;;;;;;;;;6337624;22;20022;-39
2023/10/20 04:16:11;;;;;;;3.53;0.68;;;;;;;;;;6343261;22;20041;-41
2023/10/20 04:18:48;;;;;;;3.70;1.02;;;;;;;;;;6339969;22;20071;-39
2023/10/20 04:21:16;;;;;;;4.50;1.13;;;;;;;;;;6346023;22;20041;-40
2023/10/20 04:23:48;;;;;;;4.50;0.80;;;;;;;;;;6341550;22;20399;-39
2023/10/20 04:26:19;;;;;;;5.83;1.00;;;;;;;;;;6328623;22;20018;-40
2023/10/20 04:28:48;;;;;;;6.05;0.98;;;;;;;;;;6333726;22;20015;-39
2023/10/20 04:48:20;;;;;;;17.90;1.20;;;;;;;;;;6328316;22;20022;-43
2023/10/20 04:53:54;;;;;;;4.27;0.47;;;;;;;;;;6329288;22;20117;-45
2023/10/20 04:56:37;;;;;;;3.85;0.40;;;;;;;;;;6328436;22;20018;-45
2023/10/20 04:59:09;;;;;;;2.90;0.43;;;;;;;;;;6329563;22;20330;-43
2023/10/20 05:01:47;;;;;;;3.13;0.65;;;;;;;;;;6322470;22;20424;-44
2023/10/20 05:04:20;;;;;;;2.40;0.30;;;;;;;;;;6337567;22;20431;-44
2023/10/20 05:06:56;;;;;;;2.00;0.30;;;;;;;;;;6327250;22;20049;-43
2023/10/20 05:09:25;;;;;;;3.45;0.30;;;;;;;;;;6329159;22;20740;-44
2023/10/20 05:11:53;;;;;;;5.18;0.45;;;;;;;;;;6327764;22;20020;-43
2023/10/20 05:14:23;;;;;;;3.05;0.35;;;;;;;;;;6329360;22;20010;-44
2023/10/20 05:16:51;;;;;;;7.45;0.40;;;;;;;;;;6330432;22;20459;-46
2023/10/20 05:19:19;;;;;;;4.57;0.30;;;;;;;;;;6333569;22;20485;-46
2023/10/20 05:21:46;;;;;;;4.07;0.40;;;;;;;;;;6331254;22;20015;-44
2023/10/20 05:24:14;;;;;;;3.15;0.88;;;;;;;;;;6334232;22;20361;-44
2023/10/20 05:26:45;;;;;;;2.65;0.40;;;;;;;;;;6329070;22;20025;-44
2023/10/20 05:29:14;;;;;;;7.07;0.68;;;;;;;;;;6338349;22;20052;-44
2023/10/20 05:31:43;;;;;;;3.80;0.40;;;;;;;;;;6317142;22;20018;-44
2023/10/20 05:34:12;;;;;;;5.32;0.30;;;;;;;;;;6305581;22;20453;-44
2023/10/20 05:36:41;;;;;;;3.90;0.50;;;;;;;;;;6335023;22;20018;-44
2023/10/20 05:39:13;;;;;;;4.57;0.65;;;;;;;;;;6342417;22;20018;-45
2023/10/20 05:41:43;;;;;;;14.60;1.40;;;;;;;;;;6347910;22;20360;-45
2023/10/20 05:44:14;;;;;;;5.50;0.60;;;;;;;;;;6318536;22;20006;-45
2023/10/20 05:46:42;;;;;;;5.60;1.35;;;;;;;;;;6324809;22;20018;-47
2023/10/20 05:49:11;;;;;;;5.20;1.05;;;;;;;;;;6330062;22;20030;-44
2023/10/20 05:51:39;;;;;;;6.10;1.17;;;;;;;;;;6330118;22;20071;-44
2023/10/20 05:54:10;;;;;;;6.13;1.50;;;;;;;;;;6335374;22;20018;-45
2023/10/20 05:56:38;;;;;;;5.30;1.23;;;;;;;;;;6328683;22;20026;-45
2023/10/20 05:59:05;;;;;;;6.43;1.23;;;;;;;;;;6324450;22;20098;-46
2023/10/20 06:01:33;;;;;;;7.18;1.30;;;;;;;;;;6331962;22;20018;-44
2023/10/20 06:04:01;;;;;;;20.67;2.20;;;;;;;;;;6321257;22;20014;-44
2023/10/20 06:06:35;;;;;;;6.78;1.30;;;;;;;;;;6334381;22;20093;-44
2023/10/20 06:09:02;;;;;;;6.83;1.30;;;;;;;;;;6327500;22;20454;-44
2023/10/20 06:11:30;;;;;;;9.52;1.13;;;;;;;;;;6325629;22;20063;-44
2023/10/20 06:13:58;;;;;;;6.55;1.17;;;;;;;;;;6321134;22;20017;-44
2023/10/20 06:16:26;;;;;;;6.97;1.10;;;;;;;;;;6335723;22;20021;-44
2023/10/20 06:18:54;;;;;;;4.95;0.90;;;;;;;;;;6324625;22;20022;-46
2023/10/20 06:21:22;;;;;;;6.13;0.90;;;;;;;;;;6342888;22;20059;-44
2023/10/20 06:23:51;;;;;;;3.85;0.45;;;;;;;;;;6314205;22;20373;-44
2023/10/20 06:26:20;;;;;;;4.00;0.40;;;;;;;;;;6331392;22;20018;-45
2023/10/20 06:28:48;;;;;;;4.63;0.43;;;;;;;;;;6324874;22;20093;-45
2023/10/20 06:31:41;;;;;;;4.05;0.40;;;;;;;;;;6337331;22;20018;-48
2023/10/20 06:34:22;;;;;;;3.50;0.30;;;;;;;;;;6332219;22;20314;-49
2023/10/20 06:36:57;;;;;;;2.90;0.50;;;;;;;;;;6324254;22;20099;-46
2023/10/20 06:39:26;;;;;;;6.15;0.35;;;;;;;;;;6340707;22;20018;-46
2023/10/20 06:41:53;;;;;;;4.55;0.35;;;;;;;;;;6325018;22;20041;-50
2023/10/20 06:44:22;;;;;;;6.25;0.40;;;;;;;;;;6330684;22;20015;-44
2023/10/20 06:46:51;;;;;;;3.00;0.30;;;;;;;;;;6334474;22;20015;-44
2023/10/20 06:49:19;;;;;;;2.85;0.30;;;;;;;;;;6332305;22;20343;-44
2023/10/20 06:51:47;;;;;;;8.57;0.70;;;;;;;;;;6332705;22;20071;-44
2023/10/20 06:54:16;;;;;;;4.90;0.75;;;;;;;;;;6327351;22;20052;-47
2023/10/20 06:56:44;;;;;;;6.47;0.55;;;;;;;;;;6338534;22;20015;-46
2023/10/20 06:59:13;;;;;;;2.73;0.30;;;;;;;;;;6322505;22;20260;-46
2023/10/20 07:01:41;;;;;;;8.70;0.50;;;;;;;;;;6337585;22;20118;-46
2023/10/20 07:04:11;;;;;;;4.10;0.60;;;;;;;;;;6307455;22;20745;-45
2023/10/20 07:06:40;;;;;;;5.82;0.80;;;;;;;;;;6344561;22;20021;-45
2023/10/20 07:09:12;;;;;;;2.58;0.20;;;;;;;;;;6321806;22;20026;-46
2023/10/20 07:11:40;;;;;;;4.17;0.30;;;;;;;;;;6299790;22;20022;-45
2023/10/20 07:14:10;;;;;;;3.78;0.63;;;;;;;;;;6328240;22;20662;-44
2023/10/20 07:16:38;;;;;;;2.60;0.32;;;;;;;;;;6325338;22;20018;-47
2023/10/20 07:19:06;;;;;;;1.98;0.30;;;;;;;;;;6305609;22;20014;-47
2023/10/20 07:21:34;;;;;;;2.25;0.20;;;;;;;;;;6323877;22;20021;-45
2023/10/20 07:24:03;;;;;;;3.33;0.30;;;;;;;;;;6332093;22;20014;-46
2023/10/20 07:26:30;;;;;;;2.65;0.30;;;;;;;;;;6329200;22;20018;-45
2023/10/20 07:28:58;;;;;;;1.52;0.30;;;;;;;;;;6304344;22;20444;-45
2023/10/20 07:31:30;;;;;;;2.88;0.30;;;;;;;;;;6323425;22;20014;-45
2023/10/20 07:33:58;;;;;;;2.47;0.35;;;;;;;;;;6335137;22;20018;-44
2023/10/20 07:36:26;;;;;;;1.43;0.20;;;;;;;;;;6319687;22;20237;-44
2023/10/20 07:38:53;;;;;;;2.92;0.20;;;;;;;;;;6332120;22;20014;-45
2023/10/20 07:41:21;;;;;;;1.25;0.20;;;;;;;;;;6334546;22;20018;-44
2023/10/20 07:43:49;;;;;;;1.95;0.30;;;;;;;;;;6299097;22;20019;-45
2023/10/20 07:46:18;;;;;;;3.25;0.55;;;;;;;;;;6326080;22;20445;-44
2023/10/20 07:48:47;;;;;;;1.40;0.20;;;;;;;;;;6288982;22;20021;-43
2023/10/20 07:51:15;;;;;;;2.13;0.20;;;;;;;;;;6279311;22;20290;-43
2023/10/20 07:53:43;;;;;;;1.63;0.30;;;;;;;;;;6275233;22;20636;-44
2023/10/20 07:56:11;;;;;;;1.92;0.30;;;;;;;;;;6260574;22;20382;-45
2023/10/20 07:58:39;;;;;;;2.55;0.30;;;;;;;;;;6332041;22;20421;-43
2023/10/20 08:01:07;;;;;;;2.47;0.40;;;;;;;;;;6323161;22;20079;-44
2023/10/20 08:03:35;;;;;;;3.28;0.30;;;;;;;;;;6313762;22;20102;-43
2023/10/20 08:06:05;;;;;;;1.77;0.20;;;;;;;;;;6330987;22;20018;-43
2023/10/20 08:08:33;;;;;;;2.22;0.30;;;;;;;;;;6325166;22;20034;-43
2023/10/20 08:11:04;;;;;;;1.80;0.28;;;;;;;;;;6328671;22;20498;-44
2023/10/20 08:13:33;;;;;;;2.20;0.30;;;;;;;;;;6332820;22;20353;-43
2023/10/20 08:16:01;;;;;;;2.10;0.30;;;;;;;;;;6329367;22;20029;-43
2023/10/20 08:18:33;;;;;;;1.88;0.20;;;;;;;;;;6324219;22;20014;-43
2023/10/20 08:21:05;;;;;;;2.47;0.40;;;;;;;;;;6322982;22;20086;-43
2023/10/20 08:23:33;;;;;;;2.25;0.38;;;;;;;;;;6330955;22;20022;-44
2023/10/20 08:26:01;;;;;;;1.97;0.20;;;;;;;;;;6336345;22;20028;-43
2023/10/20 08:28:29;;;;;;;2.65;0.40;;;;;;;;;;6321157;22;20018;-43
2023/10/20 08:31:04;;;;;;;2.15;0.30;;;;;;;;;;6335422;22;20018;-43
2023/10/20 08:33:33;;;;;;;2.22;0.22;;;;;;;;;;6293219;22;20376;-43
2023/10/20 08:36:14;;;;;;;3.08;0.38;;;;;;;;;;6324683;22;20022;-44
2023/10/20 08:38:42;;;;;;;3.13;0.40;;;;;;;;;;6320290;22;20018;-43
2023/10/20 08:41:11;;;;;;;3.05;0.30;;;;;;;;;;6326971;22;20029;-43
2023/10/20 08:43:45;;;;;;;3.00;0.40;;;;;;;;;;6328197;22;20018;-43
2023/10/20 08:46:14;;;;;;;3.45;0.70;;;;;;;;;;6335514;22;20021;-44
2023/10/20 08:48:42;;;;;;;4.30;0.80;;;;;;;;;;6304381;22;20014;-43
2023/10/20 08:51:12;;;;;;;4.20;0.80;;;;;;;;;;6325809;22;20499;-43
2023/10/20 08:53:41;;;;;;;4.18;0.68;;;;;;;;;;6327454;22;20433;-48
2023/10/20 08:56:10;;;;;;;3.67;1.10;;;;;;;;;;6335322;22;20014;-43
2023/10/20 08:58:39;;;;;;;4.10;0.88;;;;;;;;;;6318489;22;20478;-44
2023/10/20 09:01:07;;;;;;;3.70;0.65;;;;;;;;;;6334408;22;20085;-43
2023/10/20 09:03:39;;;;;;;3.07;0.60;;;;;;;;;;6319750;22;20091;-43
2023/10/20 09:06:08;;;;;;;3.33;0.50;;;;;;;;;;6323439;22;20038;-45
2023/10/20 09:08:38;;;;;;;3.83;0.60;;;;;;;;;;6331374;22;20332;-44
2023/10/20 09:11:08;;;;;;;3.17;0.50;;;;;;;;;;6290245;22;20010;-44
2023/10/20 09:13:37;;;;;;;3.45;0.75;;;;;;;;;;6328058;22;20014;-46
2023/10/20 09:16:08;;;;;;;4.00;0.60;;;;;;;;;;6310774;22;20083;-44
2023/10/20 09:18:43;;;;;;;3.95;0.70;;;;;;;;;;6323792;22;20813;-44
2023/10/20 09:21:13;;;;;;;4.15;0.63;;;;;;;;;;6332006;22;20097;-45
2023/10/20 09:23:53;;;;;;;3.05;0.40;;;;;;;;;;6328746;22;20015;-43
2023/10/20 09:26:22;;;;;;;3.65;0.60;;;;;;;;;;6323238;22;20386;-45
2023/10/20 09:28:50;;;;;;;3.37;0.50;;;;;;;;;;6330851;22;20018;-43
2023/10/20 09:31:19;;;;;;;3.28;0.60;;;;;;;;;;6326506;22;20024;-45
2023/10/20 09:33:47;;;;;;;2.80;0.50;;;;;;;;;;6326365;22;20010;-43
2023/10/20 09:36:16;;;;;;;2.72;0.43;;;;;;;;;;6329357;22;20014;-44
2023/10/20 09:38:51;;;;;;;3.28;0.40;;;;;;;;;;6334655;22;20071;-45
2023/10/20 09:41:23;;;;;;;3.23;0.50;;;;;;;;;;6326696;22;20079;-43
2023/10/20 09:43:52;;;;;;;2.75;0.30;;;;;;;;;;6333594;22;20018;-44
2023/10/20 09:46:34;;;;;;;2.92;0.40;;;;;;;;;;6320284;22;20742;-42
2023/10/20 09:49:09;;;;;;;3.58;0.60;;;;;;;;;;6339883;22;20038;-43
2023/10/20 09:51:36;;;;;;;3.10;0.40;;;;;;;;;;6336629;22;20392;-43
2023/10/20 09:54:06;;;;;;;3.17;0.60;;;;;;;;;;6316358;22;20014;-44
2023/10/20 09:56:37;;;;;;;2.83;0.45;;;;;;;;;;6334455;22;20025;-43
2023/10/20 09:59:06;;;;;;;3.30;0.70;;;;;;;;;;6332310;22;20068;-43
2023/10/20 10:01:33;;;;;;;3.28;0.60;;;;;;;;;;6327222;22;20066;-43
2023/10/20 10:04:03;;;;;;;2.95;0.60;;;;;;;;;;6305886;22;20625;-46
2023/10/20 10:06:35;;;;;;;3.30;0.60;;;;;;;;;;6333169;22;20018;-43
2023/10/20 10:09:04;;;;;;;3.65;0.70;;;;;;;;;;6332491;22;20030;-44
2023/10/20 10:11:36;;;;;;;3.38;0.60;;;;;;;;;;6338616;22;20014;-43
2023/10/20 10:14:05;;;;;;;3.42;1.00;;;;;;;;;;6341846;22;20010;-43
2023/10/20 10:16:33;;;;;;;3.60;0.80;;;;;;;;;;6302744;22;20048;-49
2023/10/20 10:19:07;;;;;;;4.83;0.90;;;;;;;;;;6328268;22;20621;-44
2023/10/20 10:21:38;;;;;;;4.80;1.10;;;;;;;;;;6324210;22;20440;-44
2023/10/20 10:24:09;;;;;;;3.78;0.88;;;;;;;;;;6340904;22;20020;-45
2023/10/20 10:26:49;;;;;;;4.22;0.80;;;;;;;;;;6328568;22;20089;-43
2023/10/20 10:29:16;;;;;;;3.75;1.15;;;;;;;;;;6329156;22;20020;-44
2023/10/20 10:31:45;;;;;;;4.70;1.60;;;;;;;;;;6324720;22;20094;-43
2023/10/20 10:34:42;;;;;;;5.72;1.80;;;;;;;;;;6312934;22;20011;-43
2023/10/20 10:37:10;;;;;;;6.25;2.05;;;;;;;;;;6330705;22;20643;-43
2023/10/20 10:39:38;;;;;;;5.35;1.88;;;;;;;;;;6335264;22;20018;-44
2023/10/20 10:42:07;;;;;;;6.63;2.10;;;;;;;;;;6335594;22;20011;-44
2023/10/20 10:44:39;;;;;;;5.83;1.97;;;;;;;;;;6326047;22;20254;-44
2023/10/20 10:47:18;;;;;;;3.60;0.90;;;;;;;;;;6338142;22;20021;-43
2023/10/20 10:49:48;;;;;;;5.18;1.52;;;;;;;;;;6342706;22;20056;-42
2023/10/20 10:52:16;;;;;;;4.40;1.50;;;;;;;;;;6323655;22;20022;-47
2023/10/20 10:54:44;;;;;;;7.13;1.52;;;;;;;;;;6344208;22;20018;-42
2023/10/20 10:57:13;;;;;;;4.90;1.63;;;;;;;;;;6326965;22;20014;-42
2023/10/20 10:59:41;;;;;;;5.25;1.50;;;;;;;;;;6342575;22;20014;-42
2023/10/20 11:02:09;;;;;;;5.43;1.60;;;;;;;;;;6323487;22;20401;-46
2023/10/20 11:04:37;;;;;;;5.82;1.80;;;;;;;;;;6332238;22;20020;-42
2023/10/20 11:07:07;;;;;;;4.78;1.45;;;;;;;;;;6324995;22;20886;-44
2023/10/20 11:09:39;;;;;;;4.30;1.20;;;;;;;;;;6331857;22;20018;-45
2023/10/20 11:12:09;;;;;;;4.65;0.98;;;;;;;;;;6315407;22;20367;-42
2023/10/20 11:14:39;;;;;;;4.32;0.80;;;;;;;;;;6305849;22;20041;-44
2023/10/20 11:17:06;;;;;;;3.63;0.57;;;;;;;;;;6325691;22;20010;-41
2023/10/20 11:19:34;;;;;;;3.50;0.88;;;;;;;;;;6331547;22;20438;-41
2023/10/20 11:22:02;;;;;;;3.53;0.40;;;;;;;;;;6321915;22;20196;-41
2023/10/20 11:24:34;;;;;;;3.45;0.40;;;;;;;;;;6336883;22;20018;-42
2023/10/20 11:27:05;;;;;;;3.70;0.80;;;;;;;;;;6306117;22;20023;-41
2023/10/20 11:29:33;;;;;;;3.92;0.80;;;;;;;;;;6330847;22;20068;-41
2023/10/20 11:32:19;;;;;;;3.67;0.70;;;;;;;;;;6331209;22;20014;-41
2023/10/20 11:34:50;;;;;;;3.57;0.60;;;;;;;;;;6320182;22;20744;-41
2023/10/20 11:37:17;;;;;;;3.03;0.50;;;;;;;;;;6334671;22;20017;-41
2023/10/20 11:39:45;;;;;;;4.72;0.68;;;;;;;;;;6320515;22;20022;-41
2023/10/20 11:42:13;;;;;;;4.38;0.40;;;;;;;;;;6339439;22;20010;-41
2023/10/20 11:44:40;;;;;;;3.08;0.70;;;;;;;;;;6321661;22;20593;-41
2023/10/20 11:47:08;;;;;;;5.57;0.60;;;;;;;;;;6340550;22;20014;-41
2023/10/20 11:49:37;;;;;;;5.05;0.52;;;;;;;;;;6328718;22;20611;-41
2023/10/20 11:52:08;;;;;;;5.07;0.93;;;;;;;;;;6324056;22;20242;-42
2023/10/20 11:54:36;;;;;;;5.35;0.77;;;;;;;;;;6336869;22;20022;-42
2023/10/20 11:57:05;;;;;;;4.07;0.70;;;;;;;;;;6328363;22;20014;-44
2023/10/20 11:59:35;;;;;;;5.20;0.70;;;;;;;;;;6340961;22;20507;-43
2023/10/20 12:02:03;;;;;;;3.47;0.60;;;;;;;;;;6327768;22;20017;-43
2023/10/20 12:04:31;;;;;;;3.78;0.50;;;;;;;;;;6335461;22;20018;-43
2023/10/20 12:07:00;;;;;;;5.75;0.80;;;;;;;;;;6325770;22;20520;-43
2023/10/20 12:09:27;;;;;;;5.35;0.80;;;;;;;;;;6316883;22;20022;-43
2023/10/20 12:11:56;;;;;;;7.60;1.37;;;;;;;;;;6317723;22;20097;-43
2023/10/20 12:14:26;;;;;;;4.47;1.00;;;;;;;;;;6324234;22;20106;-43
2023/10/20 12:16:54;;;;;;;4.93;0.75;;;;;;;;;;6322932;22;20067;-44
2023/10/20 12:19:23;;;;;;;5.05;0.70;;;;;;;;;;6324692;22;20251;-42
2023/10/20 12:21:52;;;;;;;6.57;1.25;;;;;;;;;;6327399;22;20360;-44
2023/10/20 12:24:21;;;;;;;6.40;0.60;;;;;;;;;;6327477;22;20029;-43
2023/10/20 12:26:53;;;;;;;5.03;0.50;;;;;;;;;;6329908;22;20464;-43
2023/10/20 12:29:22;;;;;;;2.88;0.30;;;;;;;;;;6299191;22;20508;-44
2023/10/20 12:31:50;;;;;;;2.50;0.40;;;;;;;;;;6328395;22;20071;-43
2023/10/20 12:34:19;;;;;;;3.67;1.02;;;;;;;;;;6334839;22;20067;-42
2023/10/20 12:36:48;;;;;;;4.43;0.67;;;;;;;;;;6319337;22;20014;-43
2023/10/20 12:39:18;;;;;;;2.70;0.50;;;;;;;;;;6339484;22;20015;-44
2023/10/20 12:41:51;;;;;;;3.70;0.70;;;;;;;;;;6329321;22;20067;-42
2023/10/20 12:44:21;;;;;;;2.90;0.50;;;;;;;;;;6339606;22;20014;-43
2023/10/20 12:46:52;;;;;;;4.15;0.60;;;;;;;;;;6331948;22;20015;-42
2023/10/20 12:49:19;;;;;;;4.03;0.60;;;;;;;;;;6332122;22;20445;-42
2023/10/20 12:51:48;;;;;;;3.78;0.70;;;;;;;;;;6331731;22;20338;-43
2023/10/20 12:54:16;;;;;;;4.35;0.65;;;;;;;;;;6327780;22;20015;-43
2023/10/20 12:56:44;;;;;;;3.30;0.45;;;;;;;;;;6338205;22;20029;-43
2023/10/20 12:59:13;;;;;;;3.92;0.50;;;;;;;;;;6320610;22;20099;-43
2023/10/20 13:01:42;;;;;;;4.13;0.50;;;;;;;;;;6335289;22;20025;-44
2023/10/20 13:04:11;;;;;;;3.08;0.55;;;;;;;;;;6303740;22;20627;-42
2023/10/20 13:06:40;;;;;;;3.35;0.75;;;;;;;;;;6308395;22;20064;-42
2023/10/20 13:09:26;;;;;;;5.15;1.10;;;;;;;;;;6335619;22;20045;-43
2023/10/20 13:11:53;;;;;;;6.28;0.90;;;;;;;;;;6321629;22;20516;-42
2023/10/20 13:14:23;;;;;;;4.37;0.90;;;;;;;;;;6325981;22;20022;-42
2023/10/20 13:16:51;;;;;;;4.05;0.95;;;;;;;;;;6326024;22;20497;-43
2023/10/20 13:19:19;;;;;;;4.15;1.08;;;;;;;;;;6324671;22;20014;-42
2023/10/20 13:21:47;;;;;;;5.13;0.70;;;;;;;;;;6305115;22;20044;-42
2023/10/20 13:24:19;;;;;;;7.35;1.30;;;;;;;;;;6319366;22;20010;-43
2023/10/20 13:26:47;;;;;;;4.43;1.00;;;;;;;;;;6326468;22;20297;-42
2023/10/20 13:29:15;;;;;;;6.78;1.50;;;;;;;;;;6337906;22;20018;-42
2023/10/20 13:31:44;;;;;;;7.15;1.25;;;;;;;;;;6326935;22;20101;-44
2023/10/20 13:34:13;;;;;;;4.88;1.08;;;;;;;;;;6329982;22;20101;-43
2023/10/20 13:36:41;;;;;;;5.50;0.75;;;;;;;;;;6319647;22;20024;-42
2023/10/20 13:39:09;;;;;;;4.07;1.00;;;;;;;;;;6327996;22;20022;-43
2023/10/20 13:42:02;;;;;;;6.35;1.00;;;;;;;;;;6332308;22;20026;-44
2023/10/20 13:44:30;;;;;;;5.68;1.15;;;;;;;;;;6319308;22;20014;-44
2023/10/20 13:46:59;;;;;;;2.95;0.60;;;;;;;;;;6334697;22;20360;-41
2023/10/20 13:49:27;;;;;;;3.92;0.75;;;;;;;;;;6335351;22;20018;-41
2023/10/20 13:51:56;;;;;;;4.13;1.10;;;;;;;;;;6334383;22;20018;-42
2023/10/20 13:54:25;;;;;;;3.75;0.70;;;;;;;;;;6322746;22;20447;-42
2023/10/20 13:56:53;;;;;;;7.00;0.93;;;;;;;;;;6306666;22;20011;-42
2023/10/20 13:59:21;;;;;;;5.05;1.05;;;;;;;;;;6322820;22;20038;-45
2023/10/20 14:01:48;;;;;;;5.63;0.90;;;;;;;;;;6346287;22;20565;-43
2023/10/20 14:04:18;;;;;;;3.83;0.63;;;;;;;;;;6316280;22;20022;-46
2023/10/20 14:06:46;;;;;;;4.35;0.50;;;;;;;;;;6342827;22;20017;-46
2023/10/20 14:09:14;;;;;;;3.58;0.45;;;;;;;;;;6316275;22;20059;-44
2023/10/20 14:11:41;;;;;;;5.22;0.60;;;;;;;;;;6290250;22;20022;-44
2023/10/20 14:14:11;;;;;;;2.95;0.68;;;;;;;;;;6288552;22;20083;-45
2023/10/20 14:16:39;;;;;;;3.67;0.57;;;;;;;;;;6339793;22;20449;-44
2023/10/20 14:19:07;;;;;;;4.50;0.70;;;;;;;;;;6338457;22;20482;-44
2023/10/20 14:21:36;;;;;;;2.65;0.50;;;;;;;;;;6336548;22;20387;-43
2023/10/20 14:24:04;;;;;;;3.70;0.65;;;;;;;;;;6329729;22;20788;-44
2023/10/20 14:26:38;;;;;;;3.88;0.70;;;;;;;;;;6333252;22;20021;-43
2023/10/20 14:29:05;;;;;;;4.73;0.70;;;;;;;;;;6335071;22;20041;-43
2023/10/20 14:31:33;;;;;;;4.88;0.65;;;;;;;;;;6332750;22;20014;-43
2023/10/20 14:34:01;;;;;;;3.20;0.80;;;;;;;;;;6328535;22;20113;-42
2023/10/20 14:36:29;;;;;;;3.97;0.50;;;;;;;;;;6331346;22;20014;-43
2023/10/20 14:38:57;;;;;;;3.65;0.82;;;;;;;;;;6336350;22;20014;-43
2023/10/20 14:41:25;;;;;;;3.30;0.50;;;;;;;;;;6334266;22;20038;-42
2023/10/20 14:43:53;;;;;;;4.95;0.70;;;;;;;;;;6333715;22;20433;-44
2023/10/20 14:46:21;;;;;;;3.65;0.55;;;;;;;;;;6327417;22;20071;-43
2023/10/20 14:48:48;;;;;;;4.95;0.60;;;;;;;;;;6335708;22;20526;-42
2023/10/20 14:51:16;;;;;;;6.55;0.95;;;;;;;;;;6333695;22;20057;-42
2023/10/20 14:53:44;;;;;;;3.33;0.57;;;;;;;;;;6327519;22;20852;-44
2023/10/20 14:56:16;;;;;;;6.00;0.70;;;;;;;;;;6340866;22;20015;-44
2023/10/20 14:58:45;;;;;;;3.95;0.77;;;;;;;;;;6328876;22;20090;-43
2023/10/20 15:01:13;;;;;;;4.93;0.47;;;;;;;;;;6327532;22;20041;-42
2023/10/20 15:03:40;;;;;;;5.60;1.05;;;;;;;;;;6321429;22;20014;-43
2023/10/20 15:06:09;;;;;;;5.70;0.87;;;;;;;;;;6331986;22;20382;-43
2023/10/20 15:08:37;;;;;;;4.82;0.80;;;;;;;;;;6330012;22;20018;-42
2023/10/20 15:11:08;;;;;;;4.30;0.63;;;;;;;;;;6331608;22;20010;-43
2023/10/20 15:13:37;;;;;;;4.85;0.70;;;;;;;;;;6329296;22;20187;-42
2023/10/20 15:16:10;;;;;;;3.88;0.95;;;;;;;;;;6337294;22;20018;-43